Perth Airport Weather

Latest weather

Perth Scone (EGPT) Weather updates coming soon.

Below are some surrounding airfields, alternative you can view our webcam below or contact Perth radio operator who can assist.

Dundee Weather - Distance 12nm Track 086'

[Source: ADDS]
METAR
EGPN 221450Z 23008KT 9999 FEW025 20/11 Q1020 =
EGPN 221359Z 2215/2221 23009KT 9999 FEW025 TEMPO 2215/2220 12010KT
TAF
EGPN 221359Z 2215/2221 23009KT 9999 FEW025 TEMPO 2215/2220 12010KT =

RAF Leuchars Weather - Distance 17nm Track 103'

[Source: ADDS]
METAR
EGQL 221450Z 17007KT CAVOK 19/09 Q1020 BLU =
EGQL 221330Z 2215/2224 16010KT 9999 SCT045 PROB30 TEMPO 2223/2224 7000 RA SCT018
TAF
EGQL 221330Z 2215/2224 16010KT 9999 SCT045 PROB30 TEMPO 2223/2224 7000 RA SCT018 =

Edinburgh Weather - Distance 29nm Track 180'

[Source: ADDS]
METAR
EGPH 221420Z VRB07KT CAVOK 20/06 Q1021 =
EGPH 221057Z 2212/2312 04007KT 9999 FEW035 BECMG 2213/2216 25010KT TEMPO 2302/2312 7000 -RA BKN012 PROB30 TEMPO 2303/2312 4000 RADZ BKN008
TAF
EGPH 221057Z 2212/2312 04007KT 9999 FEW035 BECMG 2213/2216 25010KT TEMPO 2302/2312 7000 -RA BKN012 PROB30 TEMPO 2303/2312 4000 RADZ BKN008 =

Aberdeen Weather - Distance 60nm Track 040'

[Source: ADDS]
METAR
EGPD 221450Z AUTO 14011KT 9999 NCD 15/07 Q1021 =
EGPD 221057Z 2212/2312 33005KT 9999 SCT040 BECMG 2212/2215 15010KT BECMG 2221/2224 23005KT
TAF
EGPD 221057Z 2212/2312 33005KT 9999 SCT040 BECMG 2212/2215 15010KT BECMG 2221/2224 23005KT =

Drone Tour of Perth Airport

Watch a full aerial tour of the Perth Airport runways 15/33, 09/27, 03/21. Follow our based Piper PA28-161 Warrior taking you on a tour of Perth Scone Aerodrome. The footage is captured in stunning 4K quality by the DJI Mavic Drone.
Morris Leslie Group Logo
ACS Engineering
Scotland's Charity Air Ambulance Logo
Air Service Training Logo

Get started with your first flight lesson with ACS Flight Training

Copyright 2021. ACS Aviation - Website designed by Xtensive